createdAt,value
2017-02-19T00:00:00.829Z,6.94
2017-02-19T00:01:10.815Z,6.97
2017-02-19T00:02:21.616Z,6.94
2017-02-19T00:03:32.408Z,7.01
2017-02-19T00:04:42.779Z,7.11
2017-02-19T00:05:52.781Z,7.03
2017-02-19T00:07:03.563Z,7.16
2017-02-19T00:08:13.979Z,7.18
2017-02-19T00:09:23.991Z,7.18
2017-02-19T00:10:34.013Z,7.21
2017-02-19T00:11:44.409Z,7.26
2017-02-19T00:12:55.198Z,7.27
2017-02-19T00:14:05.591Z,7.22
2017-02-19T00:15:16.385Z,7.29
2017-02-19T00:16:26.788Z,7.27
2017-02-19T00:17:37.571Z,7.21
2017-02-19T00:18:48.409Z,7.26
2017-02-19T00:19:58.802Z,7.29
2017-02-19T00:21:09.218Z,7.29
2017-02-19T00:22:20.065Z,7.3
2017-02-19T00:23:30.093Z,7.31
2017-02-19T00:24:40.872Z,7.41
2017-02-19T00:25:51.264Z,7.45
2017-02-19T00:27:02.044Z,7.49
2017-02-19T00:28:12.048Z,7.52
2017-02-19T00:29:22.844Z,7.61
2017-02-19T00:30:33.292Z,7.52
2017-02-19T00:31:44.059Z,7.51
2017-02-19T00:32:54.466Z,7.47
2017-02-19T00:34:05.268Z,7.44
2017-02-19T00:35:15.664Z,7.48
2017-02-19T00:36:26.494Z,7.36
2017-02-19T00:37:36.925Z,7.36
2017-02-19T00:38:46.929Z,7.33
2017-02-19T00:39:57.728Z,7.34
2017-02-19T00:41:07.746Z,7.34
2017-02-19T00:42:17.745Z,7.39
2017-02-19T00:43:28.910Z,7.33
2017-02-19T00:44:39.722Z,7.41
2017-02-19T00:45:49.709Z,7.41
2017-02-19T00:47:00.117Z,7.54
2017-02-19T00:48:10.910Z,7.39
2017-02-19T00:49:21.674Z,7.51
2017-02-19T00:50:32.452Z,7.51
2017-02-19T00:51:43.276Z,7.51
2017-02-19T00:52:53.660Z,7.49
2017-02-19T00:54:04.053Z,7.58
2017-02-19T00:55:14.459Z,7.54
2017-02-19T00:56:25.232Z,7.48
2017-02-19T00:57:36.007Z,7.47
2017-02-19T00:58:46.824Z,7.47
2017-02-19T00:59:57.223Z,7.47
2017-02-19T01:01:08.296Z,7.36
2017-02-19T01:02:18.285Z,7.48
2017-02-19T01:03:29.055Z,7.47
2017-02-19T01:04:38.641Z,7.51
2017-02-19T01:05:49.443Z,7.51
2017-02-19T01:07:00.214Z,7.4
2017-02-19T01:08:11.013Z,7.33
2017-02-19T01:09:20.649Z,7.31
2017-02-19T01:10:31.038Z,7.26
2017-02-19T01:11:41.046Z,7.31
2017-02-19T01:12:51.849Z,7.3
2017-02-19T01:14:02.626Z,7.16
2017-02-19T01:15:13.420Z,7.13
2017-02-19T01:16:23.413Z,7.09
2017-02-19T01:17:33.004Z,7.05
2017-02-19T01:18:43.803Z,7.11
2017-02-19T01:19:54.589Z,7.05
2017-02-19T01:21:04.973Z,7.15
2017-02-19T01:22:15.343Z,7.08
2017-02-19T01:23:26.109Z,7.15
2017-02-19T01:24:36.900Z,7.16
2017-02-19T01:25:47.685Z,7.03
2017-02-19T01:26:57.701Z,7.11
2017-02-19T01:28:08.495Z,7.11
2017-02-19T01:29:18.877Z,7.05
2017-02-19T01:30:29.668Z,7.09
2017-02-19T01:31:39.241Z,7.08
2017-02-19T01:32:49.687Z,7.11
2017-02-19T01:34:00.479Z,7.03
2017-02-19T01:35:10.851Z,7.08
2017-02-19T01:36:21.237Z,7.04
2017-02-19T01:37:32.025Z,7.03
2017-02-19T01:38:42.418Z,6.98
2017-02-19T01:39:52.789Z,7.03
2017-02-19T01:41:02.780Z,7.04
2017-02-19T01:42:13.172Z,6.98
2017-02-19T01:43:23.569Z,7.01
2017-02-19T01:44:33.964Z,6.98
2017-02-19T01:45:44.741Z,6.91
2017-02-19T01:46:55.523Z,6.88
2017-02-19T01:48:06.329Z,6.8
2017-02-19T01:49:16.711Z,6.82
2017-02-19T01:50:26.706Z,6.82
2017-02-19T01:51:37.063Z,6.76
2017-02-19T01:52:47.055Z,6.82
2017-02-19T01:53:57.836Z,6.76
2017-02-19T01:55:08.649Z,6.68
2017-02-19T01:56:19.049Z,6.68
2017-02-19T01:57:29.834Z,6.65
2017-02-19T01:58:40.214Z,6.55
2017-02-19T01:59:51.007Z,6.61
2017-02-19T02:01:01.786Z,6.52
2017-02-19T02:02:11.390Z,6.51
2017-02-19T02:03:20.988Z,6.52
2017-02-19T02:04:31.385Z,6.4
2017-02-19T02:05:41.782Z,6.43
2017-02-19T02:06:52.557Z,6.39
2017-02-19T02:08:02.575Z,6.39
2017-02-19T02:09:12.957Z,6.31
2017-02-19T02:10:23.328Z,6.28
2017-02-19T02:11:33.711Z,6.29
2017-02-19T02:12:44.082Z,6.17
2017-02-19T02:13:54.903Z,6.15
2017-02-19T02:15:04.903Z,6.13
2017-02-19T02:16:14.911Z,6.07
2017-02-19T02:17:25.695Z,6.1
2017-02-19T02:18:36.470Z,6.02
2017-02-19T02:19:46.896Z,5.88
2017-02-19T02:20:57.659Z,5.99
2017-02-19T02:22:08.049Z,5.88
2017-02-19T02:23:18.850Z,5.87
2017-02-19T02:24:29.641Z,5.96
2017-02-19T02:25:40.042Z,5.89
2017-02-19T02:26:51.086Z,5.91
2017-02-19T02:28:01.864Z,5.95
2017-02-19T02:29:12.269Z,5.88
2017-02-19T02:30:22.667Z,5.92
2017-02-19T02:31:33.473Z,5.91
2017-02-19T02:32:44.261Z,5.81
2017-02-19T02:33:55.042Z,5.72
2017-02-19T02:35:05.888Z,5.67
2017-02-19T02:36:15.486Z,5.63
2017-02-19T02:37:25.866Z,5.59
2017-02-19T02:38:35.866Z,5.54
2017-02-19T02:39:46.670Z,5.48
2017-02-19T02:40:57.463Z,5.49
2017-02-19T02:42:07.864Z,5.54
2017-02-19T02:43:18.232Z,5.46
2017-02-19T02:44:28.233Z,5.42
2017-02-19T02:45:39.015Z,5.48
2017-02-19T02:46:49.853Z,5.51
2017-02-19T02:48:00.253Z,5.51
2017-02-19T02:49:10.278Z,5.41
2017-02-19T02:50:20.648Z,5.44
2017-02-19T02:51:31.408Z,5.51
2017-02-19T02:52:42.188Z,5.46
2017-02-19T02:53:52.558Z,5.45
2017-02-19T02:55:02.932Z,5.44
2017-02-19T02:56:13.720Z,5.46
2017-02-19T02:57:23.721Z,5.31
2017-02-19T02:58:34.104Z,5.42
2017-02-19T02:59:44.092Z,5.45
2017-02-19T03:00:54.863Z,5.37
2017-02-19T03:33:16.796Z,1.1
2017-02-19T03:34:27.165Z,0.97
2017-02-19T03:35:37.978Z,1.04
2017-02-19T03:36:48.344Z,1.15
2017-02-19T03:37:58.721Z,1.14
2017-02-19T03:39:09.493Z,1.21
2017-02-19T03:40:19.893Z,1.35
2017-02-19T03:41:30.701Z,1.6
2017-02-19T03:42:40.730Z,1.76
2017-02-19T03:43:51.533Z,1.79
2017-02-19T03:45:02.329Z,2.02
2017-02-19T03:46:12.724Z,2.15
2017-02-19T03:47:22.316Z,2.3
2017-02-19T03:48:33.081Z,2.44
2017-02-19T03:49:43.074Z,2.66
2017-02-19T03:50:53.511Z,2.69
2017-02-19T03:52:04.273Z,2.76
2017-02-19T03:53:13.863Z,2.96
2017-02-19T03:54:24.631Z,3.08
2017-02-19T03:55:34.624Z,3.13
2017-02-19T03:56:45.484Z,3.32
2017-02-19T03:57:56.261Z,3.29
2017-02-19T03:59:06.649Z,3.42
2017-02-19T04:00:17.438Z,3.58
2017-02-19T04:01:28.223Z,3.58
2017-02-19T04:02:39.007Z,3.61
2017-02-19T04:03:49.470Z,3.74
2017-02-19T04:05:00.242Z,3.78
2017-02-19T04:06:11.041Z,3.79
2017-02-19T04:07:21.020Z,3.85
2017-02-19T04:08:31.050Z,3.85
2017-02-19T04:09:41.834Z,3.85
2017-02-19T04:10:52.215Z,3.96
2017-02-19T04:12:02.992Z,3.94
2017-02-19T04:13:13.399Z,4.04
2017-02-19T04:14:23.791Z,4.07
2017-02-19T04:15:34.574Z,4.07
2017-02-19T04:16:44.974Z,4.15
2017-02-19T04:17:55.740Z,4.15
2017-02-19T04:19:06.520Z,4.2
2017-02-19T04:20:17.302Z,4.24
2017-02-19T04:21:28.095Z,4.35
2017-02-19T04:22:38.887Z,4.24
2017-02-19T04:23:49.271Z,4.17
2017-02-19T04:25:00.035Z,4.18
2017-02-19T04:26:10.807Z,4.22
2017-02-19T04:27:21.189Z,4.24
2017-02-19T04:28:31.594Z,4.22
2017-02-19T04:29:42.381Z,4.2
2017-02-19T04:30:53.179Z,4.14
2017-02-19T04:32:03.572Z,4.12
2017-02-19T04:33:14.361Z,4.08
2017-02-19T04:34:25.168Z,4.07
2017-02-19T04:35:36.010Z,4.11
2017-02-19T04:36:46.784Z,4.07
2017-02-19T04:37:57.184Z,4.08
2017-02-19T04:39:07.557Z,4.08
2017-02-19T04:40:17.935Z,4.08
2017-02-19T04:41:28.721Z,4.08
2017-02-19T04:42:39.087Z,3.99
2017-02-19T04:43:49.859Z,3.93
2017-02-19T04:45:00.241Z,3.93
2017-02-19T04:46:10.651Z,3.85
2017-02-19T04:47:21.466Z,3.92
2017-02-19T04:48:31.846Z,3.82
2017-02-19T04:49:42.608Z,3.84
2017-02-19T04:50:52.976Z,3.85
2017-02-19T04:52:03.742Z,3.84
2017-02-19T04:53:14.529Z,3.94
2017-02-19T04:54:25.319Z,3.97
2017-02-19T04:55:36.100Z,3.94
2017-02-19T04:56:46.890Z,3.94
2017-02-19T04:57:57.676Z,3.94
2017-02-19T04:59:08.453Z,3.96
2017-02-19T05:00:18.830Z,3.96
2017-02-19T05:01:29.592Z,3.93
2017-02-19T05:02:40.611Z,3.94
2017-02-19T05:03:51.394Z,3.92
2017-02-19T05:05:02.195Z,3.85
2017-02-19T05:06:13.030Z,3.85
2017-02-19T05:07:23.430Z,3.86
2017-02-19T05:08:34.204Z,3.93
2017-02-19T05:09:44.972Z,3.84
2017-02-19T05:10:55.349Z,3.96
2017-02-19T05:12:06.115Z,3.86
2017-02-19T05:13:16.489Z,3.82
2017-02-19T05:14:26.868Z,3.93
2017-02-19T05:15:37.637Z,3.84
2017-02-19T05:16:48.407Z,3.9
2017-02-19T05:17:59.179Z,3.82
2017-02-19T05:19:09.565Z,3.86
2017-02-19T05:20:20.000Z,3.82
2017-02-19T05:21:30.005Z,3.89
2017-02-19T05:22:40.770Z,3.86
2017-02-19T05:23:51.188Z,3.89
2017-02-19T05:25:01.965Z,3.84
2017-02-19T05:26:12.748Z,3.85
2017-02-19T05:27:23.512Z,3.92
2017-02-19T05:28:34.293Z,3.93
2017-02-19T05:29:45.065Z,3.85
2017-02-19T05:30:55.868Z,3.89
2017-02-19T05:32:06.680Z,3.84
2017-02-19T05:33:17.062Z,3.86
2017-02-19T05:34:27.840Z,3.78
2017-02-19T05:35:38.624Z,3.75
2017-02-19T05:36:49.403Z,3.63
2017-02-19T05:37:59.374Z,3.61
2017-02-19T05:39:09.376Z,3.66
2017-02-19T05:40:20.129Z,3.63
2017-02-19T05:41:30.937Z,3.64
2017-02-19T05:42:41.720Z,3.66
2017-02-19T05:43:52.104Z,3.66
2017-02-19T05:45:02.504Z,3.66
2017-02-19T05:46:13.272Z,3.63
2017-02-19T05:47:24.054Z,3.64
2017-02-19T05:48:34.825Z,3.51
2017-02-19T05:49:45.593Z,3.54
2017-02-19T05:50:55.978Z,3.49
2017-02-19T05:52:06.789Z,3.54
2017-02-19T05:53:17.581Z,3.48
2017-02-19T05:54:28.347Z,3.6
2017-02-19T05:55:38.755Z,3.54
2017-02-19T05:56:49.145Z,3.48
2017-02-19T05:57:58.770Z,3.54
2017-02-19T05:59:09.545Z,3.56
2017-02-19T06:00:20.330Z,3.63
2017-02-19T06:01:31.120Z,3.69
2017-02-19T06:02:41.883Z,3.69
2017-02-19T06:03:52.288Z,3.75
2017-02-19T06:05:02.679Z,3.74
2017-02-19T06:06:13.043Z,3.78
2017-02-19T06:07:23.681Z,3.81
2017-02-19T06:08:34.065Z,3.84
2017-02-19T06:09:44.837Z,3.84
2017-02-19T06:10:55.221Z,3.94
2017-02-19T06:12:05.968Z,3.96
2017-02-19T06:13:16.338Z,3.93
2017-02-19T06:14:27.128Z,4
2017-02-19T06:15:37.499Z,4
2017-02-19T06:16:48.266Z,4.03
2017-02-19T06:17:58.627Z,4.04
2017-02-19T06:19:08.999Z,4.14
2017-02-19T06:20:19.000Z,4.18
2017-02-19T06:21:29.772Z,4.21
2017-02-19T06:22:40.552Z,4.18
2017-02-19T06:23:51.321Z,4.2
2017-02-19T06:25:01.703Z,4.14
2017-02-19T06:26:12.473Z,4.24
2017-02-19T06:27:22.865Z,4.2
2017-02-19T06:28:33.660Z,4.28
2017-02-19T06:29:43.667Z,4.33
2017-02-19T06:30:54.504Z,4.48
2017-02-19T06:32:04.888Z,4.47
2017-02-19T06:33:15.269Z,4.53
2017-02-19T06:34:25.273Z,4.54
2017-02-19T06:35:36.053Z,4.57
2017-02-19T06:36:46.844Z,4.68
2017-02-19T06:37:57.638Z,4.69
2017-02-19T06:39:08.044Z,4.78
2017-02-19T06:40:18.428Z,4.92
2017-02-19T06:41:28.818Z,4.97
2017-02-19T06:42:39.239Z,5.02
2017-02-19T06:43:49.637Z,5.03
2017-02-19T06:45:00.047Z,5.02
2017-02-19T06:46:10.830Z,5.09
2017-02-19T06:47:21.624Z,5.16
2017-02-19T06:48:32.419Z,5.21
2017-02-19T06:49:43.232Z,5.16
2017-02-19T06:50:54.003Z,5.26
2017-02-19T06:52:04.384Z,5.26
2017-02-19T06:53:15.177Z,5.36
2017-02-19T06:54:25.966Z,5.46
2017-02-19T06:55:36.369Z,5.41
2017-02-19T06:56:46.384Z,5.44
2017-02-19T06:57:56.777Z,5.46
2017-02-19T06:59:07.553Z,5.54
2017-02-19T07:00:17.926Z,5.52
2017-02-19T07:01:28.710Z,5.62
2017-02-19T07:02:39.481Z,5.72
2017-02-19T07:03:50.279Z,5.81
2017-02-19T07:05:01.056Z,5.81
2017-02-19T07:06:11.065Z,5.87
2017-02-19T07:07:21.879Z,5.81
2017-02-19T07:08:32.672Z,6
2017-02-19T07:09:43.440Z,6.1
2017-02-19T07:10:54.244Z,6.2
2017-02-19T07:12:05.039Z,6.1
2017-02-19T07:13:15.411Z,6.25
2017-02-19T07:14:25.807Z,6.34
2017-02-19T07:15:36.601Z,6.42
2017-02-19T07:16:47.380Z,6.39
2017-02-19T07:17:57.760Z,6.44
2017-02-19T07:19:08.524Z,6.42
2017-02-19T07:20:19.314Z,6.54
2017-02-19T07:21:30.085Z,6.6
2017-02-19T07:22:40.889Z,6.68
2017-02-19T07:23:51.260Z,6.76
2017-02-19T07:25:02.055Z,6.8
2017-02-19T07:26:12.829Z,6.83
2017-02-19T07:27:23.203Z,6.8
2017-02-19T07:28:33.982Z,6.91
2017-02-19T07:29:43.568Z,7
2017-02-19T07:30:53.942Z,7
2017-02-19T07:32:04.565Z,7.08
2017-02-19T07:33:15.351Z,7.11
2017-02-19T07:34:25.759Z,7.01
2017-02-19T07:35:36.546Z,7.01
2017-02-19T07:36:47.348Z,7.13
2017-02-19T07:37:58.136Z,7.12
2017-02-19T07:39:08.912Z,7.08
2017-02-19T07:40:19.295Z,7.16
2017-02-19T07:41:29.686Z,7.11
2017-02-19T07:42:40.459Z,7.22
2017-02-19T07:43:51.248Z,7.22
2017-02-19T07:45:00.848Z,7.23
2017-02-19T07:46:11.248Z,7.29
2017-02-19T07:47:21.243Z,7.39
2017-02-19T07:48:32.011Z,7.33
2017-02-19T07:49:42.793Z,7.44
2017-02-19T07:50:53.570Z,7.44
2017-02-19T07:52:04.346Z,7.54
2017-02-19T07:53:14.327Z,7.47
2017-02-19T07:54:25.144Z,7.51
2017-02-19T07:55:35.931Z,7.54
2017-02-19T07:56:46.353Z,7.64
2017-02-19T07:57:56.764Z,7.67
2017-02-19T07:59:07.557Z,7.7
2017-02-19T08:00:18.337Z,7.74
2017-02-19T08:01:29.139Z,7.8
2017-02-19T08:02:39.947Z,7.85
2017-02-19T08:03:50.729Z,7.98
2017-02-19T08:05:01.553Z,7.95
2017-02-19T08:06:12.310Z,7.95
2017-02-19T08:07:23.083Z,8.04
2017-02-19T08:08:33.882Z,8.07
2017-02-19T08:09:44.660Z,8.14
2017-02-19T08:10:55.067Z,8.21
2017-02-19T08:12:05.459Z,8.17
2017-02-19T08:13:16.263Z,8.13
2017-02-19T08:14:27.053Z,8.24
2017-02-19T08:15:37.861Z,8.42
2017-02-19T08:16:48.280Z,8.42
2017-02-19T08:17:58.652Z,8.54
2017-02-19T08:19:09.447Z,8.57
2017-02-19T08:20:20.261Z,8.68
2017-02-19T08:21:30.234Z,8.83
2017-02-19T08:22:41.036Z,8.8
2017-02-19T08:23:51.817Z,8.77
2017-02-19T08:25:02.616Z,8.83
2017-02-19T08:26:13.025Z,8.74
2017-02-19T08:27:23.783Z,8.83
2017-02-19T08:28:34.565Z,9.01
2017-02-19T08:29:44.951Z,9.09
2017-02-19T08:30:55.334Z,9.08
2017-02-19T08:32:05.706Z,9.17
2017-02-19T08:33:16.512Z,9.23
2017-02-19T08:34:27.304Z,9.17
2017-02-19T08:35:37.717Z,9.17
2017-02-19T08:36:48.107Z,9.29
2017-02-19T08:37:58.495Z,9.35
2017-02-19T08:39:08.870Z,9.35
2017-02-19T08:40:19.667Z,9.41
2017-02-19T08:41:30.435Z,9.37
2017-02-19T08:42:41.228Z,9.39
2017-02-19T08:43:52.016Z,9.42
2017-02-19T08:45:02.795Z,9.42
2017-02-19T08:46:13.554Z,9.42
2017-02-19T08:47:23.542Z,9.47
2017-02-19T08:48:33.931Z,9.41
2017-02-19T08:49:44.766Z,9.41
2017-02-19T08:50:55.169Z,9.52
2017-02-19T08:52:05.953Z,9.48
2017-02-19T08:53:15.951Z,9.41
2017-02-19T08:54:26.729Z,9.5
2017-02-19T08:55:37.545Z,9.44
2017-02-19T08:56:47.541Z,9.45
2017-02-19T08:57:57.569Z,9.52
2017-02-19T08:59:08.396Z,9.47
2017-02-19T09:00:18.796Z,9.44
2017-02-19T09:01:29.186Z,9.48
2017-02-19T09:02:39.995Z,9.6
2017-02-19T09:03:50.778Z,9.59
2017-02-19T09:05:01.553Z,9.67
2017-02-19T09:06:12.351Z,9.66
2017-02-19T09:07:22.742Z,9.82
2017-02-19T09:08:33.534Z,9.82
2017-02-19T09:09:43.935Z,9.84
2017-02-19T09:10:54.321Z,10
2017-02-19T09:12:05.129Z,9.98
2017-02-19T09:13:15.901Z,10.03
2017-02-19T09:14:26.692Z,10.1
2017-02-19T09:15:37.485Z,10.23
2017-02-19T09:16:47.878Z,10.23
2017-02-19T09:17:58.703Z,10.41
2017-02-19T09:19:09.524Z,10.52
2017-02-19T09:20:20.330Z,10.52
2017-02-19T09:21:30.712Z,10.69
2017-02-19T09:22:41.515Z,10.76
2017-02-19T09:23:51.941Z,10.9
2017-02-19T09:25:02.712Z,11.1
2017-02-19T09:26:13.482Z,11.13
2017-02-19T09:27:24.287Z,11.13
2017-02-19T09:28:34.715Z,11.35
2017-02-19T09:29:45.506Z,11.38
2017-02-19T09:30:55.887Z,11.52
2017-02-19T09:32:06.668Z,11.67
2017-02-19T09:33:17.088Z,11.64
2017-02-19T09:34:27.879Z,11.78
2017-02-19T09:35:38.678Z,11.84
2017-02-19T09:36:48.704Z,11.89
2017-02-19T09:37:59.133Z,11.88
2017-02-19T09:39:09.929Z,12.04
2017-02-19T09:40:20.732Z,12.07
2017-02-19T09:41:31.111Z,12.19
2017-02-19T09:42:41.914Z,12.4
2017-02-19T09:43:52.691Z,12.52
2017-02-19T09:45:03.082Z,12.61
2017-02-19T09:46:13.905Z,12.84
2017-02-19T09:47:24.290Z,12.89
2017-02-19T09:48:35.096Z,12.92
2017-02-19T09:49:45.077Z,13.01
2017-02-19T09:50:55.480Z,13.07
2017-02-19T09:52:06.279Z,13.17
2017-02-19T09:53:17.086Z,13.37
2017-02-19T09:54:27.887Z,13.5
2017-02-19T09:55:38.307Z,13.51
2017-02-19T09:56:48.727Z,13.58
2017-02-19T09:57:59.513Z,13.65
2017-02-19T09:59:10.301Z,13.62
2017-02-19T10:00:21.091Z,13.37
2017-02-19T10:01:31.477Z,13.17
2017-02-19T10:02:41.849Z,12.86
2017-02-19T10:03:52.654Z,12.77
2017-02-19T10:05:03.479Z,12.89
2017-02-19T10:06:14.251Z,12.98
2017-02-19T10:07:25.023Z,12.96
2017-02-19T10:08:35.831Z,12.89
2017-02-19T10:09:46.599Z,12.8
2017-02-19T10:10:57.409Z,12.81
2017-02-19T10:12:07.808Z,12.88
2017-02-19T10:13:18.223Z,12.96
2017-02-19T10:14:28.637Z,13.09
2017-02-19T10:15:39.044Z,13.24
2017-02-19T10:16:49.819Z,13.32
2017-02-19T10:18:00.211Z,13.4
2017-02-19T10:19:11.012Z,13.66
2017-02-19T10:20:21.393Z,13.51
2017-02-19T10:21:32.184Z,13.55
2017-02-19T10:22:42.984Z,13.65
2017-02-19T10:23:53.784Z,13.95
2017-02-19T10:25:04.615Z,14.11
2017-02-19T10:26:15.390Z,14.11
2017-02-19T10:27:25.801Z,13.91
2017-02-19T10:28:36.202Z,14.05
2017-02-19T10:29:47.054Z,14.12
2017-02-19T10:30:57.829Z,14.09
2017-02-19T10:32:08.618Z,14.12
2017-02-19T10:33:19.031Z,14.16
2017-02-19T10:34:29.830Z,14.33
2017-02-19T10:35:40.621Z,14.41
2017-02-19T10:36:51.402Z,14.41
2017-02-19T10:38:02.187Z,14.41
2017-02-19T10:39:12.619Z,14.49
2017-02-19T10:40:23.458Z,14.6
2017-02-19T10:41:34.265Z,14.52
2017-02-19T10:42:45.039Z,14.77
2017-02-19T10:43:55.829Z,14.89
2017-02-19T10:45:06.217Z,15.02
2017-02-19T10:46:17.050Z,15.1
2017-02-19T10:47:27.848Z,15.08
2017-02-19T10:48:38.628Z,15.12
2017-02-19T10:49:49.034Z,15.12
2017-02-19T10:50:59.071Z,15.1
2017-02-19T10:52:09.872Z,15.23
2017-02-19T10:53:20.670Z,15.25
2017-02-19T10:54:33.350Z,15.05
2017-02-19T10:55:44.236Z,15.05
2017-02-19T10:56:55.291Z,14.98
2017-02-19T10:58:06.384Z,14.9
2017-02-19T10:59:17.176Z,15.04
2017-02-19T11:00:27.968Z,14.9
2017-02-19T11:01:38.774Z,14.85
2017-02-19T11:02:49.542Z,14.75
2017-02-19T11:03:59.925Z,14.79
2017-02-19T11:05:10.322Z,14.8
2017-02-19T11:06:21.116Z,14.89
2017-02-19T11:07:31.940Z,14.9
2017-02-19T11:08:42.731Z,14.87
2017-02-19T11:09:53.552Z,14.87
2017-02-19T11:11:04.370Z,14.9
2017-02-19T11:12:14.384Z,14.93
2017-02-19T11:13:25.169Z,14.9
2017-02-19T11:14:35.551Z,14.87
2017-02-19T11:15:45.952Z,14.86
2017-02-19T11:16:56.331Z,14.85
2017-02-19T11:18:06.733Z,14.87
2017-02-19T11:19:17.522Z,14.9
2017-02-19T11:20:28.333Z,14.94
2017-02-19T11:21:38.774Z,14.85
2017-02-19T11:22:49.740Z,14.8
2017-02-19T11:24:00.556Z,14.75
2017-02-19T11:25:11.332Z,14.7
2017-02-19T11:26:22.165Z,14.64
2017-02-19T11:27:33.010Z,14.56
2017-02-19T11:28:43.832Z,14.64
2017-02-19T11:29:54.625Z,14.48
2017-02-19T11:31:05.437Z,14.42
2017-02-19T11:32:15.825Z,14.28
2017-02-19T11:33:26.228Z,14.27
2017-02-19T11:34:37.024Z,14.11
2017-02-19T11:35:47.007Z,13.97
2017-02-19T11:36:57.841Z,13.93
2017-02-19T11:38:08.261Z,13.84
2017-02-19T11:39:19.061Z,13.78
2017-02-19T11:40:29.867Z,13.63
2017-02-19T11:41:40.245Z,13.58
2017-02-19T11:42:51.026Z,13.54
2017-02-19T11:44:01.419Z,13.51
2017-02-19T11:45:11.831Z,13.63
2017-02-19T11:46:22.659Z,13.68
2017-02-19T11:47:33.461Z,13.55
2017-02-19T11:48:44.278Z,13.65
2017-02-19T11:49:55.079Z,13.7
2017-02-19T11:51:05.892Z,13.78
2017-02-19T11:52:16.287Z,13.88
2017-02-19T11:53:27.186Z,13.95
2017-02-19T11:54:37.980Z,14.09
2017-02-19T11:55:48.354Z,14.06
2017-02-19T11:56:59.186Z,14.21
2017-02-19T11:58:09.972Z,14.21
2017-02-19T11:59:20.756Z,14.13
2017-02-19T12:00:31.563Z,14.19
2017-02-19T12:01:41.958Z,14.11
2017-02-19T12:02:52.755Z,14.05
2017-02-19T12:04:03.560Z,14.09
2017-02-19T12:05:14.366Z,14.02
2017-02-19T12:06:24.792Z,13.99
2017-02-19T12:07:35.608Z,13.86
2017-02-19T12:08:46.467Z,13.91
2017-02-19T12:09:57.299Z,13.83
2017-02-19T12:11:08.196Z,13.73
2017-02-19T12:12:19.052Z,13.75
2017-02-19T12:13:29.904Z,13.73
2017-02-19T12:14:40.798Z,13.7
2017-02-19T12:15:51.632Z,13.79
2017-02-19T12:17:02.045Z,13.72
2017-02-19T12:18:12.449Z,13.73
2017-02-19T12:19:22.893Z,13.66
2017-02-19T12:20:33.754Z,13.63
2017-02-19T12:21:44.578Z,13.58
2017-02-19T12:22:55.006Z,13.66
2017-02-19T12:24:05.855Z,13.62
2017-02-19T12:25:16.251Z,13.51
2017-02-19T12:26:27.054Z,13.37
2017-02-19T12:27:37.669Z,13.36
2017-02-19T12:28:48.503Z,13.39
2017-02-19T12:29:59.299Z,13.36
2017-02-19T12:31:10.136Z,13.37
2017-02-19T12:32:20.581Z,13.47
2017-02-19T12:33:31.409Z,13.4
2017-02-19T12:34:42.186Z,13.51
2017-02-19T12:35:53.085Z,13.55
2017-02-19T12:37:03.868Z,13.45
2017-02-19T12:38:14.249Z,13.54
2017-02-19T12:39:25.037Z,13.47
2017-02-19T12:40:35.857Z,13.54
2017-02-19T12:41:46.257Z,13.54
2017-02-19T12:42:57.019Z,13.54
2017-02-19T12:44:07.827Z,13.54
2017-02-19T12:45:18.613Z,13.53
2017-02-19T12:46:29.493Z,13.51
2017-02-19T12:47:39.909Z,13.51
2017-02-19T12:48:50.313Z,13.5
2017-02-19T12:50:00.310Z,13.5
2017-02-19T12:51:11.092Z,13.55
2017-02-19T12:52:21.916Z,13.6
2017-02-19T12:53:32.391Z,13.57
2017-02-19T12:54:43.226Z,13.55
2017-02-19T12:55:54.026Z,13.55
2017-02-19T12:57:04.849Z,13.65
2017-02-19T12:58:15.640Z,13.69
2017-02-19T12:59:26.445Z,13.78
2017-02-19T13:00:37.245Z,13.95
2017-02-19T13:01:47.637Z,13.93
2017-02-19T13:02:58.031Z,13.99
2017-02-19T13:04:08.858Z,14.13
2017-02-19T13:05:19.258Z,14.15
2017-02-19T13:06:29.661Z,14.28
2017-02-19T13:07:40.051Z,14.31
2017-02-19T13:08:50.886Z,14.36
2017-02-19T13:10:01.683Z,14.38
2017-02-19T13:11:12.484Z,14.36
2017-02-19T13:12:22.878Z,14.36
2017-02-19T13:13:33.283Z,14.3
2017-02-19T13:14:44.060Z,14.27
2017-02-19T13:15:54.868Z,14.28
2017-02-19T13:17:05.661Z,14.19
2017-02-19T13:18:16.441Z,14.2
2017-02-19T13:19:27.213Z,14.21
2017-02-19T13:20:37.604Z,14.08
2017-02-19T13:21:48.007Z,14.09
2017-02-19T13:22:58.418Z,14.02
2017-02-19T13:24:08.823Z,13.93
2017-02-19T13:25:19.598Z,13.93
2017-02-19T13:26:30.018Z,13.95
2017-02-19T13:27:40.429Z,13.86
2017-02-19T13:28:51.228Z,13.81
2017-02-19T13:30:01.716Z,13.84
2017-02-19T13:31:12.162Z,13.72
2017-02-19T13:32:22.651Z,13.72
2017-02-19T13:33:33.491Z,13.65
2017-02-19T13:34:44.390Z,13.65
2017-02-19T13:35:55.264Z,13.57
2017-02-19T13:37:06.156Z,13.62
2017-02-19T13:38:17.013Z,13.51
2017-02-19T13:39:27.897Z,13.51
2017-02-19T13:40:38.761Z,13.65
2017-02-19T13:41:49.649Z,13.57
2017-02-19T13:43:00.504Z,13.55
2017-02-19T13:44:11.361Z,13.58
2017-02-19T13:45:22.253Z,13.66
2017-02-19T13:46:33.101Z,13.73
2017-02-19T13:47:43.508Z,13.7
2017-02-19T13:48:54.495Z,13.86
2017-02-19T13:50:05.375Z,13.87
2017-02-19T13:51:16.343Z,13.87
2017-02-19T13:52:27.172Z,13.72
2017-02-19T13:53:37.652Z,13.63
2017-02-19T13:54:48.549Z,13.55
2017-02-19T13:55:59.429Z,13.6
2017-02-19T13:57:10.258Z,13.55
2017-02-19T13:58:20.736Z,13.53
2017-02-19T13:59:31.628Z,13.54
2017-02-19T14:00:42.094Z,13.63
2017-02-19T14:01:52.083Z,13.57
2017-02-19T14:03:02.899Z,13.6
2017-02-19T14:04:13.723Z,13.69
2017-02-19T14:05:24.541Z,13.68
2017-02-19T14:06:35.326Z,13.69
2017-02-19T14:07:46.121Z,13.66
2017-02-19T14:08:56.916Z,13.66
2017-02-19T14:10:07.561Z,13.58
2017-02-19T14:11:18.402Z,13.63
2017-02-19T14:12:29.202Z,13.72
2017-02-19T14:13:40.008Z,13.62
2017-02-19T14:14:50.398Z,13.63
2017-02-19T14:16:01.202Z,13.6
2017-02-19T14:17:12.482Z,13.69
2017-02-19T14:18:23.423Z,13.55
2017-02-19T14:19:34.461Z,13.58
2017-02-19T14:20:45.399Z,13.54
2017-02-19T14:21:56.290Z,13.65
2017-02-19T14:23:07.117Z,13.48
2017-02-19T14:24:17.989Z,13.4
2017-02-19T14:25:28.411Z,13.36
2017-02-19T14:26:39.726Z,13.21
2017-02-19T14:27:50.585Z,13.16
2017-02-19T14:29:01.020Z,13.09
2017-02-19T14:30:12.095Z,12.95
2017-02-19T14:31:22.932Z,12.84
2017-02-19T14:32:33.895Z,12.78
2017-02-19T14:33:44.342Z,12.8
2017-02-19T14:34:55.257Z,12.59
2017-02-19T14:36:06.176Z,12.59
2017-02-19T14:37:17.328Z,12.61
2017-02-19T14:38:28.635Z,12.59
2017-02-19T14:39:39.546Z,12.59
2017-02-19T14:40:50.664Z,12.62
2017-02-19T14:42:01.562Z,12.62
2017-02-19T14:43:12.385Z,12.71
2017-02-19T14:44:23.530Z,12.63
2017-02-19T14:45:34.465Z,12.63
2017-02-19T14:46:45.531Z,12.7
2017-02-19T14:47:56.600Z,12.73
2017-02-19T14:49:08.012Z,12.86
2017-02-19T14:50:19.372Z,12.86
2017-02-19T14:51:29.898Z,12.92
2017-02-19T14:52:41.440Z,12.86
2017-02-19T14:53:52.727Z,12.78
2017-02-19T14:55:04.164Z,12.71
2017-02-19T14:56:29.324Z,12.73
2017-02-19T14:57:41.777Z,12.58
2017-02-19T14:58:52.819Z,12.74
2017-02-19T15:00:04.573Z,12.73
2017-02-19T15:01:16.456Z,12.59
2017-02-19T15:02:27.662Z,12.41
2017-02-19T15:03:38.870Z,12.31
2017-02-19T15:04:49.522Z,12.16
2017-02-19T15:06:00.345Z,12
2017-02-19T15:07:12.836Z,11.81
2017-02-19T15:08:24.273Z,11.76
2017-02-19T15:09:34.745Z,11.66
2017-02-19T15:10:45.558Z,11.59
2017-02-19T15:11:56.398Z,11.73
2017-02-19T15:13:08.553Z,11.73
2017-02-19T15:14:19.379Z,11.64
2017-02-19T15:15:30.437Z,11.66
2017-02-19T15:16:41.653Z,11.63
2017-02-19T15:17:52.656Z,11.67
2017-02-19T15:19:03.903Z,11.67
2017-02-19T15:20:30.253Z,11.67
2017-02-19T15:21:40.652Z,11.68
2017-02-19T15:22:51.455Z,11.7
2017-02-19T15:24:02.269Z,11.67
2017-02-19T15:25:13.110Z,11.67
2017-02-19T15:26:23.498Z,11.71
2017-02-19T15:27:33.919Z,11.66
2017-02-19T15:28:44.327Z,11.76
2017-02-19T15:29:54.774Z,11.79
2017-02-19T15:31:05.217Z,11.73
2017-02-19T15:32:15.710Z,11.78
2017-02-19T15:33:26.539Z,11.85
2017-02-19T15:34:37.575Z,11.81
2017-02-19T15:35:48.397Z,11.68
2017-02-19T15:36:59.215Z,11.71
2017-02-19T15:38:10.245Z,11.66
2017-02-19T15:39:21.126Z,11.49
2017-02-19T15:40:31.553Z,11.45
2017-02-19T15:41:42.356Z,11.45
2017-02-19T15:42:53.130Z,11.42
2017-02-19T15:44:03.567Z,11.31
2017-02-19T15:45:14.191Z,11.2
2017-02-19T15:46:25.254Z,11.2
2017-02-19T15:47:36.744Z,11.21
2017-02-19T15:48:46.766Z,11.15
2017-02-19T15:49:57.368Z,11.1
2017-02-19T15:51:08.469Z,11.2
2017-02-19T15:52:19.768Z,11.2
2017-02-19T15:53:30.993Z,11.2
2017-02-19T15:54:42.075Z,11.16
2017-02-19T15:55:52.971Z,11.08
2017-02-19T15:57:04.190Z,11.06
2017-02-19T15:58:15.053Z,10.97
2017-02-19T15:59:27.373Z,10.83
2017-02-19T16:00:38.413Z,10.83